KBNL/BNL METAR and TAF weather

Enter ICAO airport designator
Station Type Date Time Source
KBNL METAR 2019/12/11 17:55 UTC NOAA

KBNL 111755Z AUTO 03009KT 10SM FEW029 13/06 A3036 RMK AO2


Station Type Date Time Source
KBNL Decoded METAR 2019/12/11 17:55 UTC NOAA

Station name not available
Dec 11, 2019 - 12:55 PM EST / 2019.12.11 1755 UTC
Wind: from the NNE (030 degrees) at 10 MPH (9 KT):0
Visibility: 10 mile(s):0
Sky conditions: mostly clear
Temperature: 55 F (13 C)
Dew Point: 42 F (6 C)
Relative Humidity: 62%
Pressure (altimeter): 30.36 in. Hg (1028 hPa)
ob: KBNL 111755Z AUTO 03009KT 10SM FEW029 13/06 A3036 RMK AO2
cycle: 18

Station Type Date Time Source
KBNL TAF UTC NOAA

Error!

Example: see airport list